sensor_id;sensor_type;location;lat;lon;timestamp;temperature;humidity
22081;DHT22;11207;59.512;18.050;2022-08-21T00:02:22;16.10;99.90
22081;DHT22;11207;59.512;18.050;2022-08-21T00:04:48;16.10;99.90
22081;DHT22;11207;59.512;18.050;2022-08-21T00:07:14;16.10;99.90
22081;DHT22;11207;59.512;18.050;2022-08-21T00:09:40;16.10;99.90
22081;DHT22;11207;59.512;18.050;2022-08-21T00:12:06;16.10;99.90
22081;DHT22;11207;59.512;18.050;2022-08-21T00:14:33;16.20;99.90
22081;DHT22;11207;59.512;18.050;2022-08-21T00:16:59;16.20;99.90
22081;DHT22;11207;59.512;18.050;2022-08-21T00:19:25;16.20;99.90
22081;DHT22;11207;59.512;18.050;2022-08-21T00:21:52;16.30;99.90
22081;DHT22;11207;59.512;18.050;2022-08-21T00:24:19;16.40;99.90
22081;DHT22;11207;59.512;18.050;2022-08-21T00:26:45;16.40;99.90
22081;DHT22;11207;59.512;18.050;2022-08-21T00:29:11;16.40;99.90
22081;DHT22;11207;59.512;18.050;2022-08-21T00:31:37;16.40;99.90
22081;DHT22;11207;59.512;18.050;2022-08-21T00:34:03;16.40;99.90
22081;DHT22;11207;59.512;18.050;2022-08-21T00:36:29;16.40;99.90
22081;DHT22;11207;59.512;18.050;2022-08-21T00:38:55;16.30;99.90
22081;DHT22;11207;59.512;18.050;2022-08-21T00:41:22;16.30;99.90
22081;DHT22;11207;59.512;18.050;2022-08-21T00:43:49;16.20;99.90
22081;DHT22;11207;59.512;18.050;2022-08-21T00:46:16;16.30;99.90
22081;DHT22;11207;59.512;18.050;2022-08-21T00:48:42;16.30;99.90
22081;DHT22;11207;59.512;18.050;2022-08-21T00:51:14;16.30;99.90
22081;DHT22;11207;59.512;18.050;2022-08-21T00:53:47;16.30;99.90
22081;DHT22;11207;59.512;18.050;2022-08-21T00:56:13;16.30;99.90
22081;DHT22;11207;59.512;18.050;2022-08-21T00:58:41;16.30;99.90
22081;DHT22;11207;59.512;18.050;2022-08-21T01:01:08;16.30;99.90
22081;DHT22;11207;59.512;18.050;2022-08-21T01:03:35;16.40;99.90
22081;DHT22;11207;59.512;18.050;2022-08-21T01:06:01;16.40;99.90
22081;DHT22;11207;59.512;18.050;2022-08-21T01:08:28;16.40;99.90
22081;DHT22;11207;59.512;18.050;2022-08-21T01:10:54;16.40;99.90
22081;DHT22;11207;59.512;18.050;2022-08-21T01:13:21;16.40;99.90
22081;DHT22;11207;59.512;18.050;2022-08-21T01:15:50;16.40;99.90
22081;DHT22;11207;59.512;18.050;2022-08-21T01:18:18;16.40;99.90
22081;DHT22;11207;59.512;18.050;2022-08-21T01:23:30;16.40;99.90
22081;DHT22;11207;59.512;18.050;2022-08-21T01:25:56;16.40;99.90
22081;DHT22;11207;59.512;18.050;2022-08-21T01:28:22;16.40;99.90
22081;DHT22;11207;59.512;18.050;2022-08-21T01:30:50;16.40;99.90
22081;DHT22;11207;59.512;18.050;2022-08-21T01:33:18;16.40;99.90
22081;DHT22;11207;59.512;18.050;2022-08-21T01:35:45;16.40;99.90
22081;DHT22;11207;59.512;18.050;2022-08-21T01:38:11;16.40;99.90
22081;DHT22;11207;59.512;18.050;2022-08-21T01:40:37;16.40;99.90
22081;DHT22;11207;59.512;18.050;2022-08-21T01:43:03;16.30;99.90
22081;DHT22;11207;59.512;18.050;2022-08-21T01:45:29;16.30;99.90
22081;DHT22;11207;59.512;18.050;2022-08-21T01:47:54;16.20;99.90
22081;DHT22;11207;59.512;18.050;2022-08-21T01:50:20;16.10;99.90
22081;DHT22;11207;59.512;18.050;2022-08-21T01:52:47;16.10;99.90
22081;DHT22;11207;59.512;18.050;2022-08-21T01:55:14;16.10;99.90
22081;DHT22;11207;59.512;18.050;2022-08-21T01:57:40;16.10;99.90
22081;DHT22;11207;59.512;18.050;2022-08-21T02:00:09;16.00;99.90
22081;DHT22;11207;59.512;18.050;2022-08-21T02:02:36;16.00;99.90
22081;DHT22;11207;59.512;18.050;2022-08-21T02:05:03;16.00;99.90
22081;DHT22;11207;59.512;18.050;2022-08-21T02:07:36;16.00;99.90
22081;DHT22;11207;59.512;18.050;2022-08-21T02:10:02;16.00;99.90
22081;DHT22;11207;59.512;18.050;2022-08-21T02:12:28;16.00;99.90
22081;DHT22;11207;59.512;18.050;2022-08-21T02:14:53;15.90;99.90
22081;DHT22;11207;59.512;18.050;2022-08-21T02:17:19;15.90;99.90
22081;DHT22;11207;59.512;18.050;2022-08-21T02:19:45;15.90;99.90
22081;DHT22;11207;59.512;18.050;2022-08-21T02:22:11;15.90;99.90
22081;DHT22;11207;59.512;18.050;2022-08-21T02:24:37;15.90;99.90
22081;DHT22;11207;59.512;18.050;2022-08-21T02:27:03;15.90;99.90
22081;DHT22;11207;59.512;18.050;2022-08-21T02:29:29;15.90;99.90
22081;DHT22;11207;59.512;18.050;2022-08-21T02:31:54;15.80;99.90
22081;DHT22;11207;59.512;18.050;2022-08-21T02:34:20;15.80;99.90
22081;DHT22;11207;59.512;18.050;2022-08-21T02:36:46;15.80;99.90
22081;DHT22;11207;59.512;18.050;2022-08-21T02:39:12;15.80;99.90
22081;DHT22;11207;59.512;18.050;2022-08-21T02:41:37;15.80;99.90
22081;DHT22;11207;59.512;18.050;2022-08-21T02:44:03;15.80;99.90
22081;DHT22;11207;59.512;18.050;2022-08-21T02:46:28;15.90;99.90
22081;DHT22;11207;59.512;18.050;2022-08-21T02:48:55;15.90;99.90
22081;DHT22;11207;59.512;18.050;2022-08-21T02:51:21;15.90;99.90
22081;DHT22;11207;59.512;18.050;2022-08-21T02:53:48;15.90;99.90
22081;DHT22;11207;59.512;18.050;2022-08-21T02:56:19;15.90;99.90
22081;DHT22;11207;59.512;18.050;2022-08-21T02:58:49;15.90;99.90
22081;DHT22;11207;59.512;18.050;2022-08-21T03:01:16;15.90;99.90
22081;DHT22;11207;59.512;18.050;2022-08-21T03:03:44;15.80;99.90
22081;DHT22;11207;59.512;18.050;2022-08-21T03:06:13;15.80;99.90
22081;DHT22;11207;59.512;18.050;2022-08-21T03:08:39;15.80;99.90
22081;DHT22;11207;59.512;18.050;2022-08-21T03:11:05;15.80;99.90
22081;DHT22;11207;59.512;18.050;2022-08-21T03:13:31;15.60;99.90
22081;DHT22;11207;59.512;18.050;2022-08-21T03:15:58;15.70;99.90
22081;DHT22;11207;59.512;18.050;2022-08-21T03:18:23;15.60;99.90
22081;DHT22;11207;59.512;18.050;2022-08-21T03:20:49;15.60;99.90
22081;DHT22;11207;59.512;18.050;2022-08-21T03:23:16;15.70;99.90
22081;DHT22;11207;59.512;18.050;2022-08-21T03:25:43;15.70;99.90
22081;DHT22;11207;59.512;18.050;2022-08-21T03:28:13;15.70;99.90
22081;DHT22;11207;59.512;18.050;2022-08-21T03:30:43;15.70;99.90
22081;DHT22;11207;59.512;18.050;2022-08-21T03:33:09;15.70;99.90
22081;DHT22;11207;59.512;18.050;2022-08-21T03:35:35;15.70;99.90
22081;DHT22;11207;59.512;18.050;2022-08-21T03:38:01;15.80;99.90
22081;DHT22;11207;59.512;18.050;2022-08-21T03:40:26;15.80;99.90
22081;DHT22;11207;59.512;18.050;2022-08-21T03:42:52;15.80;99.90
22081;DHT22;11207;59.512;18.050;2022-08-21T03:45:18;15.90;99.90
22081;DHT22;11207;59.512;18.050;2022-08-21T03:48:10;16.00;99.90
22081;DHT22;11207;59.512;18.050;2022-08-21T03:50:39;16.10;99.90
22081;DHT22;11207;59.512;18.050;2022-08-21T03:53:06;16.20;99.90
22081;DHT22;11207;59.512;18.050;2022-08-21T03:55:32;16.20;99.90
22081;DHT22;11207;59.512;18.050;2022-08-21T03:57:58;16.30;99.90
22081;DHT22;11207;59.512;18.050;2022-08-21T04:00:24;16.30;99.90
22081;DHT22;11207;59.512;18.050;2022-08-21T04:02:50;16.30;99.90
22081;DHT22;11207;59.512;18.050;2022-08-21T04:05:17;16.30;99.90
22081;DHT22;11207;59.512;18.050;2022-08-21T04:08:04;16.30;99.90
22081;DHT22;11207;59.512;18.050;2022-08-21T04:10:32;16.40;99.90
22081;DHT22;11207;59.512;18.050;2022-08-21T04:12:58;16.40;99.90
22081;DHT22;11207;59.512;18.050;2022-08-21T04:15:24;16.50;99.90
22081;DHT22;11207;59.512;18.050;2022-08-21T04:17:51;16.50;99.90
22081;DHT22;11207;59.512;18.050;2022-08-21T04:20:18;16.50;99.90
22081;DHT22;11207;59.512;18.050;2022-08-21T04:22:44;16.60;99.90
22081;DHT22;11207;59.512;18.050;2022-08-21T04:25:11;16.60;99.90
22081;DHT22;11207;59.512;18.050;2022-08-21T04:27:37;16.70;99.90
22081;DHT22;11207;59.512;18.050;2022-08-21T04:30:04;16.70;99.90
22081;DHT22;11207;59.512;18.050;2022-08-21T04:32:29;16.70;99.90
22081;DHT22;11207;59.512;18.050;2022-08-21T04:35:06;16.70;99.90
22081;DHT22;11207;59.512;18.050;2022-08-21T04:37:32;16.70;99.90
22081;DHT22;11207;59.512;18.050;2022-08-21T04:39:58;16.80;99.90
22081;DHT22;11207;59.512;18.050;2022-08-21T04:42:28;16.80;99.90
22081;DHT22;11207;59.512;18.050;2022-08-21T04:44:54;16.80;99.90
22081;DHT22;11207;59.512;18.050;2022-08-21T04:47:20;16.80;99.90
22081;DHT22;11207;59.512;18.050;2022-08-21T04:49:46;16.80;99.90
22081;DHT22;11207;59.512;18.050;2022-08-21T04:52:15;16.80;99.90
22081;DHT22;11207;59.512;18.050;2022-08-21T04:54:44;16.80;99.90
22081;DHT22;11207;59.512;18.050;2022-08-21T04:57:10;16.80;99.90
22081;DHT22;11207;59.512;18.050;2022-08-21T04:59:56;16.80;99.90
22081;DHT22;11207;59.512;18.050;2022-08-21T05:02:22;16.80;99.90
22081;DHT22;11207;59.512;18.050;2022-08-21T05:04:50;16.80;99.90
22081;DHT22;11207;59.512;18.050;2022-08-21T05:07:22;16.90;99.90
22081;DHT22;11207;59.512;18.050;2022-08-21T05:09:48;16.90;99.90
22081;DHT22;11207;59.512;18.050;2022-08-21T05:12:14;16.90;99.90
22081;DHT22;11207;59.512;18.050;2022-08-21T05:14:40;16.90;99.90
22081;DHT22;11207;59.512;18.050;2022-08-21T05:17:08;16.90;99.90
22081;DHT22;11207;59.512;18.050;2022-08-21T05:19:34;16.90;99.90
22081;DHT22;11207;59.512;18.050;2022-08-21T05:22:00;16.90;99.90
22081;DHT22;11207;59.512;18.050;2022-08-21T05:24:27;16.90;99.90
22081;DHT22;11207;59.512;18.050;2022-08-21T05:26:52;17.00;99.90
22081;DHT22;11207;59.512;18.050;2022-08-21T05:29:18;17.00;99.90
22081;DHT22;11207;59.512;18.050;2022-08-21T05:31:45;17.00;99.90
22081;DHT22;11207;59.512;18.050;2022-08-21T05:34:12;17.10;99.90
22081;DHT22;11207;59.512;18.050;2022-08-21T05:36:38;17.10;99.90
22081;DHT22;11207;59.512;18.050;2022-08-21T05:39:04;17.10;99.90
22081;DHT22;11207;59.512;18.050;2022-08-21T05:41:29;17.10;99.90
22081;DHT22;11207;59.512;18.050;2022-08-21T05:43:55;17.20;99.90
22081;DHT22;11207;59.512;18.050;2022-08-21T05:46:21;17.20;99.90
22081;DHT22;11207;59.512;18.050;2022-08-21T05:48:47;17.20;99.90
22081;DHT22;11207;59.512;18.050;2022-08-21T05:51:14;17.20;99.90
22081;DHT22;11207;59.512;18.050;2022-08-21T05:53:44;17.20;99.90
22081;DHT22;11207;59.512;18.050;2022-08-21T05:56:11;17.20;99.90
22081;DHT22;11207;59.512;18.050;2022-08-21T05:58:37;17.20;99.90
22081;DHT22;11207;59.512;18.050;2022-08-21T06:01:04;17.30;99.90
22081;DHT22;11207;59.512;18.050;2022-08-21T06:03:32;17.30;99.90
22081;DHT22;11207;59.512;18.050;2022-08-21T06:05:59;17.30;99.90
22081;DHT22;11207;59.512;18.050;2022-08-21T06:08:25;17.40;99.90
22081;DHT22;11207;59.512;18.050;2022-08-21T06:10:55;17.40;99.90
22081;DHT22;11207;59.512;18.050;2022-08-21T06:13:22;17.50;99.90
22081;DHT22;11207;59.512;18.050;2022-08-21T06:15:48;17.50;99.90
22081;DHT22;11207;59.512;18.050;2022-08-21T06:18:14;17.50;99.90
22081;DHT22;11207;59.512;18.050;2022-08-21T06:20:40;17.60;99.90
22081;DHT22;11207;59.512;18.050;2022-08-21T06:23:09;17.60;99.90
22081;DHT22;11207;59.512;18.050;2022-08-21T06:25:35;17.60;99.90
22081;DHT22;11207;59.512;18.050;2022-08-21T06:28:06;17.70;99.90
22081;DHT22;11207;59.512;18.050;2022-08-21T06:30:33;17.70;99.90
22081;DHT22;11207;59.512;18.050;2022-08-21T06:32:59;17.80;99.90
22081;DHT22;11207;59.512;18.050;2022-08-21T06:35:26;17.90;99.90
22081;DHT22;11207;59.512;18.050;2022-08-21T06:37:51;17.90;99.90
22081;DHT22;11207;59.512;18.050;2022-08-21T06:40:17;17.90;99.90
22081;DHT22;11207;59.512;18.050;2022-08-21T06:42:43;18.00;99.90
22081;DHT22;11207;59.512;18.050;2022-08-21T06:45:09;18.00;99.90
22081;DHT22;11207;59.512;18.050;2022-08-21T06:47:35;18.00;99.90
22081;DHT22;11207;59.512;18.050;2022-08-21T06:50:01;18.00;99.90
22081;DHT22;11207;59.512;18.050;2022-08-21T06:52:26;18.00;99.90
22081;DHT22;11207;59.512;18.050;2022-08-21T06:54:52;18.00;99.90
22081;DHT22;11207;59.512;18.050;2022-08-21T06:57:18;18.00;99.90
22081;DHT22;11207;59.512;18.050;2022-08-21T06:59:43;18.00;99.90
22081;DHT22;11207;59.512;18.050;2022-08-21T07:02:17;18.00;99.90
22081;DHT22;11207;59.512;18.050;2022-08-21T07:04:53;18.00;99.90
22081;DHT22;11207;59.512;18.050;2022-08-21T07:07:18;18.00;99.90
22081;DHT22;11207;59.512;18.050;2022-08-21T07:09:44;18.00;99.90
22081;DHT22;11207;59.512;18.050;2022-08-21T07:12:09;18.00;99.90
22081;DHT22;11207;59.512;18.050;2022-08-21T07:14:35;18.00;99.90
22081;DHT22;11207;59.512;18.050;2022-08-21T07:17:02;18.00;99.90
22081;DHT22;11207;59.512;18.050;2022-08-21T07:19:27;18.00;99.90
22081;DHT22;11207;59.512;18.050;2022-08-21T07:21:57;18.00;99.90
22081;DHT22;11207;59.512;18.050;2022-08-21T07:24:23;18.00;99.90
22081;DHT22;11207;59.512;18.050;2022-08-21T07:26:48;18.00;99.90
22081;DHT22;11207;59.512;18.050;2022-08-21T07:29:14;18.00;99.90
22081;DHT22;11207;59.512;18.050;2022-08-21T07:31:40;18.10;99.90
22081;DHT22;11207;59.512;18.050;2022-08-21T07:34:06;18.20;99.90
22081;DHT22;11207;59.512;18.050;2022-08-21T07:36:31;18.30;99.90
22081;DHT22;11207;59.512;18.050;2022-08-21T07:38:57;18.30;99.90
22081;DHT22;11207;59.512;18.050;2022-08-21T07:41:26;18.30;99.90
22081;DHT22;11207;59.512;18.050;2022-08-21T07:43:54;18.30;99.90
22081;DHT22;11207;59.512;18.050;2022-08-21T07:46:20;18.30;99.90
22081;DHT22;11207;59.512;18.050;2022-08-21T07:48:46;18.30;99.90
22081;DHT22;11207;59.512;18.050;2022-08-21T07:51:15;18.30;99.90
22081;DHT22;11207;59.512;18.050;2022-08-21T07:53:42;18.40;99.90
22081;DHT22;11207;59.512;18.050;2022-08-21T07:56:08;18.40;99.90
22081;DHT22;11207;59.512;18.050;2022-08-21T07:58:36;18.40;99.90
22081;DHT22;11207;59.512;18.050;2022-08-21T08:01:02;18.50;99.90
22081;DHT22;11207;59.512;18.050;2022-08-21T08:03:27;18.60;99.90
22081;DHT22;11207;59.512;18.050;2022-08-21T08:05:53;18.70;99.90
22081;DHT22;11207;59.512;18.050;2022-08-21T08:08:19;18.80;99.90
22081;DHT22;11207;59.512;18.050;2022-08-21T08:10:45;18.80;99.90
22081;DHT22;11207;59.512;18.050;2022-08-21T08:13:11;18.80;99.90
22081;DHT22;11207;59.512;18.050;2022-08-21T08:15:37;18.90;99.90
22081;DHT22;11207;59.512;18.050;2022-08-21T08:18:03;19.00;99.90
22081;DHT22;11207;59.512;18.050;2022-08-21T08:20:28;19.00;99.90
22081;DHT22;11207;59.512;18.050;2022-08-21T08:22:55;19.20;99.90
22081;DHT22;11207;59.512;18.050;2022-08-21T08:25:22;19.20;99.90
22081;DHT22;11207;59.512;18.050;2022-08-21T08:27:48;19.30;99.90
22081;DHT22;11207;59.512;18.050;2022-08-21T08:30:16;19.30;99.90
22081;DHT22;11207;59.512;18.050;2022-08-21T08:32:43;19.40;99.90
22081;DHT22;11207;59.512;18.050;2022-08-21T08:35:10;19.50;99.90
22081;DHT22;11207;59.512;18.050;2022-08-21T08:37:37;19.60;99.90
22081;DHT22;11207;59.512;18.050;2022-08-21T08:40:07;19.70;99.90
22081;DHT22;11207;59.512;18.050;2022-08-21T08:42:36;19.80;99.90
22081;DHT22;11207;59.512;18.050;2022-08-21T08:45:12;20.00;99.90
22081;DHT22;11207;59.512;18.050;2022-08-21T08:47:42;20.10;99.90
22081;DHT22;11207;59.512;18.050;2022-08-21T08:50:19;20.20;99.90
22081;DHT22;11207;59.512;18.050;2022-08-21T08:52:57;20.40;99.90
22081;DHT22;11207;59.512;18.050;2022-08-21T08:55:38;20.40;99.90
22081;DHT22;11207;59.512;18.050;2022-08-21T08:58:06;20.50;99.90
22081;DHT22;11207;59.512;18.050;2022-08-21T09:00:32;20.60;99.90
22081;DHT22;11207;59.512;18.050;2022-08-21T09:03:00;20.70;99.90
22081;DHT22;11207;59.512;18.050;2022-08-21T09:05:30;20.80;99.90
22081;DHT22;11207;59.512;18.050;2022-08-21T09:08:26;21.00;99.90
22081;DHT22;11207;59.512;18.050;2022-08-21T09:13:59;21.30;99.90
22081;DHT22;11207;59.512;18.050;2022-08-21T09:16:47;21.50;99.90
22081;DHT22;11207;59.512;18.050;2022-08-21T09:22:36;21.70;99.90
22081;DHT22;11207;59.512;18.050;2022-08-21T09:27:43;22.10;99.90
22081;DHT22;11207;59.512;18.050;2022-08-21T09:30:10;22.10;99.90
22081;DHT22;11207;59.512;18.050;2022-08-21T09:32:38;22.10;99.90
22081;DHT22;11207;59.512;18.050;2022-08-21T09:37:44;22.40;99.90
22081;DHT22;11207;59.512;18.050;2022-08-21T09:45:40;22.20;99.90
22081;DHT22;11207;59.512;18.050;2022-08-21T09:48:25;22.20;99.90
22081;DHT22;11207;59.512;18.050;2022-08-21T09:50:52;22.30;99.90
22081;DHT22;11207;59.512;18.050;2022-08-21T09:53:21;22.40;99.90
22081;DHT22;11207;59.512;18.050;2022-08-21T09:55:57;22.40;99.90
22081;DHT22;11207;59.512;18.050;2022-08-21T09:58:45;22.40;99.90
22081;DHT22;11207;59.512;18.050;2022-08-21T10:01:19;22.30;99.90
22081;DHT22;11207;59.512;18.050;2022-08-21T10:04:09;22.30;99.90
22081;DHT22;11207;59.512;18.050;2022-08-21T10:06:38;22.20;99.90
22081;DHT22;11207;59.512;18.050;2022-08-21T10:09:30;22.20;99.90
22081;DHT22;11207;59.512;18.050;2022-08-21T10:22:38;22.10;99.90
22081;DHT22;11207;59.512;18.050;2022-08-21T10:28:15;22.10;99.90
22081;DHT22;11207;59.512;18.050;2022-08-21T10:30:56;22.20;99.90
22081;DHT22;11207;59.512;18.050;2022-08-21T10:33:41;22.10;99.90
22081;DHT22;11207;59.512;18.050;2022-08-21T10:49:58;22.10;99.90
22081;DHT22;11207;59.512;18.050;2022-08-21T10:55:08;22.40;99.90
22081;DHT22;11207;59.512;18.050;2022-08-21T11:01:20;22.70;99.90
22081;DHT22;11207;59.512;18.050;2022-08-21T11:03:45;22.80;99.90
22081;DHT22;11207;59.512;18.050;2022-08-21T11:06:23;22.90;99.90
22081;DHT22;11207;59.512;18.050;2022-08-21T11:08:58;23.10;99.90
22081;DHT22;11207;59.512;18.050;2022-08-21T11:11:32;23.00;99.90
22081;DHT22;11207;59.512;18.050;2022-08-21T11:14:21;23.10;99.90
22081;DHT22;11207;59.512;18.050;2022-08-21T11:16:57;23.20;99.90
22081;DHT22;11207;59.512;18.050;2022-08-21T11:22:28;22.80;99.90
22081;DHT22;11207;59.512;18.050;2022-08-21T11:25:03;22.80;99.90
22081;DHT22;11207;59.512;18.050;2022-08-21T11:27:54;22.60;99.90
22081;DHT22;11207;59.512;18.050;2022-08-21T11:30:27;22.70;99.90
22081;DHT22;11207;59.512;18.050;2022-08-21T11:33:06;22.80;99.90
22081;DHT22;11207;59.512;18.050;2022-08-21T11:38:42;22.90;99.90
22081;DHT22;11207;59.512;18.050;2022-08-21T11:44:05;23.10;99.90
22081;DHT22;11207;59.512;18.050;2022-08-21T11:52:02;23.00;99.90
22081;DHT22;11207;59.512;18.050;2022-08-21T11:54:39;23.00;99.90
22081;DHT22;11207;59.512;18.050;2022-08-21T11:57:32;23.20;99.90
22081;DHT22;11207;59.512;18.050;2022-08-21T12:00:07;23.20;99.90
22081;DHT22;11207;59.512;18.050;2022-08-21T12:02:40;23.20;99.90
22081;DHT22;11207;59.512;18.050;2022-08-21T12:05:09;23.20;99.90
22081;DHT22;11207;59.512;18.050;2022-08-21T12:07:44;23.30;99.90
22081;DHT22;11207;59.512;18.050;2022-08-21T12:10:17;23.20;99.20
22081;DHT22;11207;59.512;18.050;2022-08-21T12:12:46;23.20;99.60
22081;DHT22;11207;59.512;18.050;2022-08-21T12:25:41;23.30;99.90
22081;DHT22;11207;59.512;18.050;2022-08-21T12:28:10;23.50;99.90
22081;DHT22;11207;59.512;18.050;2022-08-21T12:30:42;23.70;99.90
22081;DHT22;11207;59.512;18.050;2022-08-21T12:33:31;23.70;99.90
22081;DHT22;11207;59.512;18.050;2022-08-21T12:36:09;23.80;99.90
22081;DHT22;11207;59.512;18.050;2022-08-21T12:39:04;24.00;98.70
22081;DHT22;11207;59.512;18.050;2022-08-21T12:41:32;23.90;99.90
22081;DHT22;11207;59.512;18.050;2022-08-21T12:44:08;24.30;99.90
22081;DHT22;11207;59.512;18.050;2022-08-21T12:46:39;24.40;96.70
22081;DHT22;11207;59.512;18.050;2022-08-21T12:49:14;24.50;98.40
22081;DHT22;11207;59.512;18.050;2022-08-21T12:51:58;24.50;98.00
22081;DHT22;11207;59.512;18.050;2022-08-21T12:54:42;24.30;95.10
22081;DHT22;11207;59.512;18.050;2022-08-21T12:57:09;24.10;97.10
22081;DHT22;11207;59.512;18.050;2022-08-21T12:59:42;23.90;94.20
22081;DHT22;11207;59.512;18.050;2022-08-21T13:02:33;23.60;95.30
22081;DHT22;11207;59.512;18.050;2022-08-21T13:05:06;23.30;95.60
22081;DHT22;11207;59.512;18.050;2022-08-21T13:07:35;23.30;96.40
22081;DHT22;11207;59.512;18.050;2022-08-21T13:10:10;23.20;96.60
22081;DHT22;11207;59.512;18.050;2022-08-21T13:12:41;23.10;96.70
22081;DHT22;11207;59.512;18.050;2022-08-21T13:15:07;23.20;99.70
22081;DHT22;11207;59.512;18.050;2022-08-21T13:17:36;23.40;99.90
22081;DHT22;11207;59.512;18.050;2022-08-21T13:20:09;23.60;99.60
22081;DHT22;11207;59.512;18.050;2022-08-21T13:22:43;23.60;98.50
22081;DHT22;11207;59.512;18.050;2022-08-21T13:25:14;23.60;97.90
22081;DHT22;11207;59.512;18.050;2022-08-21T13:27:43;23.50;96.30
22081;DHT22;11207;59.512;18.050;2022-08-21T13:30:23;23.70;99.90
22081;DHT22;11207;59.512;18.050;2022-08-21T13:32:56;23.70;97.40
22081;DHT22;11207;59.512;18.050;2022-08-21T13:35:27;23.80;99.10
22081;DHT22;11207;59.512;18.050;2022-08-21T13:37:54;23.80;99.10
22081;DHT22;11207;59.512;18.050;2022-08-21T13:40:46;23.90;98.50
22081;DHT22;11207;59.512;18.050;2022-08-21T13:43:15;24.00;98.90
22081;DHT22;11207;59.512;18.050;2022-08-21T13:45:49;24.00;97.60
22081;DHT22;11207;59.512;18.050;2022-08-21T13:48:15;23.60;94.20
22081;DHT22;11207;59.512;18.050;2022-08-21T13:50:41;23.50;97.20
22081;DHT22;11207;59.512;18.050;2022-08-21T13:53:29;23.50;96.50
22081;DHT22;11207;59.512;18.050;2022-08-21T13:55:56;23.50;97.70
22081;DHT22;11207;59.512;18.050;2022-08-21T13:58:46;23.60;98.60
22081;DHT22;11207;59.512;18.050;2022-08-21T14:01:30;23.70;95.20
22081;DHT22;11207;59.512;18.050;2022-08-21T14:04:37;23.70;95.90
22081;DHT22;11207;59.512;18.050;2022-08-21T14:06:54;23.60;95.00
22081;DHT22;11207;59.512;18.050;2022-08-21T14:09:33;23.60;94.80
22081;DHT22;11207;59.512;18.050;2022-08-21T14:12:17;23.60;96.60
22081;DHT22;11207;59.512;18.050;2022-08-21T14:14:45;23.60;95.90
22081;DHT22;11207;59.512;18.050;2022-08-21T14:17:14;23.70;94.50
22081;DHT22;11207;59.512;18.050;2022-08-21T14:19:50;23.60;94.10
22081;DHT22;11207;59.512;18.050;2022-08-21T14:22:29;23.50;95.20
22081;DHT22;11207;59.512;18.050;2022-08-21T14:27:51;23.50;92.80
22081;DHT22;11207;59.512;18.050;2022-08-21T14:30:31;23.40;93.70
22081;DHT22;11207;59.512;18.050;2022-08-21T14:33:00;23.40;91.90
22081;DHT22;11207;59.512;18.050;2022-08-21T14:35:26;23.40;92.20
22081;DHT22;11207;59.512;18.050;2022-08-21T14:37:52;23.40;92.70
22081;DHT22;11207;59.512;18.050;2022-08-21T14:40:20;23.40;92.10
22081;DHT22;11207;59.512;18.050;2022-08-21T14:42:46;23.40;92.20
22081;DHT22;11207;59.512;18.050;2022-08-21T14:45:18;23.40;92.50
22081;DHT22;11207;59.512;18.050;2022-08-21T14:47:45;23.40;91.40
22081;DHT22;11207;59.512;18.050;2022-08-21T14:50:12;23.40;93.50
22081;DHT22;11207;59.512;18.050;2022-08-21T14:52:39;23.40;92.60
22081;DHT22;11207;59.512;18.050;2022-08-21T14:55:06;23.40;91.60
22081;DHT22;11207;59.512;18.050;2022-08-21T14:57:32;23.40;92.10
22081;DHT22;11207;59.512;18.050;2022-08-21T14:59:58;23.40;92.50
22081;DHT22;11207;59.512;18.050;2022-08-21T15:02:25;23.30;91.00
22081;DHT22;11207;59.512;18.050;2022-08-21T15:04:51;23.20;91.60
22081;DHT22;11207;59.512;18.050;2022-08-21T15:07:16;23.20;91.60
22081;DHT22;11207;59.512;18.050;2022-08-21T15:09:42;23.20;92.20
22081;DHT22;11207;59.512;18.050;2022-08-21T15:12:07;23.20;93.60
22081;DHT22;11207;59.512;18.050;2022-08-21T15:14:37;23.30;93.50
22081;DHT22;11207;59.512;18.050;2022-08-21T15:17:06;23.30;93.00
22081;DHT22;11207;59.512;18.050;2022-08-21T15:19:32;23.30;93.10
22081;DHT22;11207;59.512;18.050;2022-08-21T15:21:58;23.30;92.10
22081;DHT22;11207;59.512;18.050;2022-08-21T15:24:24;23.30;91.70
22081;DHT22;11207;59.512;18.050;2022-08-21T15:26:51;23.20;91.30
22081;DHT22;11207;59.512;18.050;2022-08-21T15:29:17;23.20;92.30
22081;DHT22;11207;59.512;18.050;2022-08-21T15:31:57;23.20;90.90
22081;DHT22;11207;59.512;18.050;2022-08-21T15:34:25;23.10;90.70
22081;DHT22;11207;59.512;18.050;2022-08-21T15:36:52;23.10;91.50
22081;DHT22;11207;59.512;18.050;2022-08-21T15:39:18;23.00;91.20
22081;DHT22;11207;59.512;18.050;2022-08-21T15:41:45;23.00;92.40
22081;DHT22;11207;59.512;18.050;2022-08-21T15:44:12;22.90;91.90
22081;DHT22;11207;59.512;18.050;2022-08-21T15:46:39;22.90;91.70
22081;DHT22;11207;59.512;18.050;2022-08-21T15:49:06;22.90;91.80
22081;DHT22;11207;59.512;18.050;2022-08-21T15:51:32;22.70;93.20
22081;DHT22;11207;59.512;18.050;2022-08-21T15:54:01;22.60;93.50
22081;DHT22;11207;59.512;18.050;2022-08-21T15:56:33;22.50;92.80
22081;DHT22;11207;59.512;18.050;2022-08-21T15:59:03;22.50;93.70
22081;DHT22;11207;59.512;18.050;2022-08-21T16:01:29;22.50;93.90
22081;DHT22;11207;59.512;18.050;2022-08-21T16:03:55;22.50;93.10
22081;DHT22;11207;59.512;18.050;2022-08-21T16:06:21;22.50;93.00
22081;DHT22;11207;59.512;18.050;2022-08-21T16:08:47;22.50;92.80
22081;DHT22;11207;59.512;18.050;2022-08-21T16:11:14;22.50;93.10
22081;DHT22;11207;59.512;18.050;2022-08-21T16:13:43;22.50;91.40
22081;DHT22;11207;59.512;18.050;2022-08-21T16:16:15;22.40;92.80
22081;DHT22;11207;59.512;18.050;2022-08-21T16:18:41;22.30;92.20
22081;DHT22;11207;59.512;18.050;2022-08-21T16:21:07;22.30;93.90
22081;DHT22;11207;59.512;18.050;2022-08-21T16:23:34;22.20;92.80
22081;DHT22;11207;59.512;18.050;2022-08-21T16:26:04;22.20;92.90
22081;DHT22;11207;59.512;18.050;2022-08-21T16:28:31;22.10;94.40
22081;DHT22;11207;59.512;18.050;2022-08-21T16:30:58;22.00;94.10
22081;DHT22;11207;59.512;18.050;2022-08-21T16:33:31;22.00;95.00
22081;DHT22;11207;59.512;18.050;2022-08-21T16:35:59;21.90;95.10
22081;DHT22;11207;59.512;18.050;2022-08-21T16:38:28;21.90;94.70
22081;DHT22;11207;59.512;18.050;2022-08-21T16:40:55;21.90;93.70
22081;DHT22;11207;59.512;18.050;2022-08-21T16:43:26;21.80;94.10
22081;DHT22;11207;59.512;18.050;2022-08-21T16:45:54;21.80;95.90
22081;DHT22;11207;59.512;18.050;2022-08-21T16:48:21;21.80;95.30
22081;DHT22;11207;59.512;18.050;2022-08-21T16:50:47;21.70;97.70